sensor_id;sensor_type;location;lat;lon;timestamp;temperature;humidity
25532;DHT22;13429;48.816;9.118;2023-12-07T00:01:19;1.80;85.30
25532;DHT22;13429;48.816;9.118;2023-12-07T00:03:44;1.80;85.10
25532;DHT22;13429;48.816;9.118;2023-12-07T00:06:10;1.90;84.70
25532;DHT22;13429;48.816;9.118;2023-12-07T00:08:35;1.90;84.70
25532;DHT22;13429;48.816;9.118;2023-12-07T00:11:01;2.00;84.40
25532;DHT22;13429;48.816;9.118;2023-12-07T00:13:27;2.00;84.00
25532;DHT22;13429;48.816;9.118;2023-12-07T00:15:52;2.00;84.60
25532;DHT22;13429;48.816;9.118;2023-12-07T00:18:18;2.10;84.50
25532;DHT22;13429;48.816;9.118;2023-12-07T00:20:44;2.10;84.30
25532;DHT22;13429;48.816;9.118;2023-12-07T00:23:10;2.20;84.20
25532;DHT22;13429;48.816;9.118;2023-12-07T00:25:37;2.30;83.90
25532;DHT22;13429;48.816;9.118;2023-12-07T00:28:02;2.20;83.40
25532;DHT22;13429;48.816;9.118;2023-12-07T00:30:29;2.20;83.60
25532;DHT22;13429;48.816;9.118;2023-12-07T00:32:54;2.20;83.60
25532;DHT22;13429;48.816;9.118;2023-12-07T00:35:21;2.20;83.90
25532;DHT22;13429;48.816;9.118;2023-12-07T00:37:47;2.20;83.50
25532;DHT22;13429;48.816;9.118;2023-12-07T00:40:13;2.20;83.60
25532;DHT22;13429;48.816;9.118;2023-12-07T00:42:39;2.20;83.80
25532;DHT22;13429;48.816;9.118;2023-12-07T00:45:05;2.20;83.50
25532;DHT22;13429;48.816;9.118;2023-12-07T00:47:31;2.20;83.20
25532;DHT22;13429;48.816;9.118;2023-12-07T00:49:56;2.20;83.50
25532;DHT22;13429;48.816;9.118;2023-12-07T00:52:22;2.20;83.40
25532;DHT22;13429;48.816;9.118;2023-12-07T00:54:47;2.30;83.30
25532;DHT22;13429;48.816;9.118;2023-12-07T00:57:13;2.30;83.40
25532;DHT22;13429;48.816;9.118;2023-12-07T00:59:39;2.30;82.80
25532;DHT22;13429;48.816;9.118;2023-12-07T01:02:05;2.40;82.90
25532;DHT22;13429;48.816;9.118;2023-12-07T01:04:31;2.30;82.70
25532;DHT22;13429;48.816;9.118;2023-12-07T01:06:57;2.30;82.50
25532;DHT22;13429;48.816;9.118;2023-12-07T01:09:23;2.30;82.80
25532;DHT22;13429;48.816;9.118;2023-12-07T01:11:49;2.30;83.10
25532;DHT22;13429;48.816;9.118;2023-12-07T01:14:15;2.30;83.10
25532;DHT22;13429;48.816;9.118;2023-12-07T01:16:42;2.30;82.90
25532;DHT22;13429;48.816;9.118;2023-12-07T01:19:08;2.40;82.80
25532;DHT22;13429;48.816;9.118;2023-12-07T01:21:33;2.40;82.40
25532;DHT22;13429;48.816;9.118;2023-12-07T01:23:59;2.40;82.70
25532;DHT22;13429;48.816;9.118;2023-12-07T01:26:25;2.40;82.70
25532;DHT22;13429;48.816;9.118;2023-12-07T01:28:50;2.40;82.70
25532;DHT22;13429;48.816;9.118;2023-12-07T01:31:16;2.40;82.60
25532;DHT22;13429;48.816;9.118;2023-12-07T01:33:43;2.40;82.50
25532;DHT22;13429;48.816;9.118;2023-12-07T01:36:08;2.40;82.50
25532;DHT22;13429;48.816;9.118;2023-12-07T01:38:34;2.30;82.30
25532;DHT22;13429;48.816;9.118;2023-12-07T01:41:00;2.30;82.60
25532;DHT22;13429;48.816;9.118;2023-12-07T01:43:25;2.30;82.70
25532;DHT22;13429;48.816;9.118;2023-12-07T01:45:52;2.20;82.70
25532;DHT22;13429;48.816;9.118;2023-12-07T01:48:21;2.10;82.90
25532;DHT22;13429;48.816;9.118;2023-12-07T01:50:47;2.10;82.90
25532;DHT22;13429;48.816;9.118;2023-12-07T01:53:13;2.10;83.00
25532;DHT22;13429;48.816;9.118;2023-12-07T01:55:40;2.10;83.00
25532;DHT22;13429;48.816;9.118;2023-12-07T01:58:06;2.10;83.30
25532;DHT22;13429;48.816;9.118;2023-12-07T02:00:33;2.20;83.20
25532;DHT22;13429;48.816;9.118;2023-12-07T02:03:00;2.10;83.10
25532;DHT22;13429;48.816;9.118;2023-12-07T02:05:28;2.10;83.30
25532;DHT22;13429;48.816;9.118;2023-12-07T02:07:54;2.00;83.30
25532;DHT22;13429;48.816;9.118;2023-12-07T02:10:20;2.00;83.40
25532;DHT22;13429;48.816;9.118;2023-12-07T02:12:46;2.00;83.50
25532;DHT22;13429;48.816;9.118;2023-12-07T02:15:12;1.90;83.50
25532;DHT22;13429;48.816;9.118;2023-12-07T02:17:41;1.90;83.60
25532;DHT22;13429;48.816;9.118;2023-12-07T02:22:52;1.80;83.90
25532;DHT22;13429;48.816;9.118;2023-12-07T02:25:18;1.80;84.20
25532;DHT22;13429;48.816;9.118;2023-12-07T02:27:45;1.70;84.20
25532;DHT22;13429;48.816;9.118;2023-12-07T02:30:14;1.70;84.30
25532;DHT22;13429;48.816;9.118;2023-12-07T02:32:41;1.70;84.20
25532;DHT22;13429;48.816;9.118;2023-12-07T02:35:08;1.60;84.40
25532;DHT22;13429;48.816;9.118;2023-12-07T02:37:50;1.60;84.30
25532;DHT22;13429;48.816;9.118;2023-12-07T02:40:23;1.50;84.20
25532;DHT22;13429;48.816;9.118;2023-12-07T02:42:50;1.40;84.40
25532;DHT22;13429;48.816;9.118;2023-12-07T02:45:16;1.40;84.80
25532;DHT22;13429;48.816;9.118;2023-12-07T02:47:41;1.50;85.20
25532;DHT22;13429;48.816;9.118;2023-12-07T02:50:09;1.40;85.00
25532;DHT22;13429;48.816;9.118;2023-12-07T02:52:35;1.50;85.20
25532;DHT22;13429;48.816;9.118;2023-12-07T02:55:01;1.50;85.30
25532;DHT22;13429;48.816;9.118;2023-12-07T02:57:28;1.40;85.10
25532;DHT22;13429;48.816;9.118;2023-12-07T02:59:54;1.40;85.40
25532;DHT22;13429;48.816;9.118;2023-12-07T03:02:20;1.40;85.70
25532;DHT22;13429;48.816;9.118;2023-12-07T03:04:46;1.40;86.00
25532;DHT22;13429;48.816;9.118;2023-12-07T03:07:12;1.30;86.00
25532;DHT22;13429;48.816;9.118;2023-12-07T03:09:37;1.30;86.50
25532;DHT22;13429;48.816;9.118;2023-12-07T03:12:03;1.20;86.30
25532;DHT22;13429;48.816;9.118;2023-12-07T03:14:29;1.20;86.60
25532;DHT22;13429;48.816;9.118;2023-12-07T03:16:54;1.10;86.50
25532;DHT22;13429;48.816;9.118;2023-12-07T03:19:20;0.90;86.50
25532;DHT22;13429;48.816;9.118;2023-12-07T03:21:46;0.90;86.80
25532;DHT22;13429;48.816;9.118;2023-12-07T03:24:11;0.80;87.20
25532;DHT22;13429;48.816;9.118;2023-12-07T03:26:37;0.70;87.10
25532;DHT22;13429;48.816;9.118;2023-12-07T03:29:03;0.60;87.40
25532;DHT22;13429;48.816;9.118;2023-12-07T03:31:29;0.60;87.70
25532;DHT22;13429;48.816;9.118;2023-12-07T03:33:56;0.60;87.90
25532;DHT22;13429;48.816;9.118;2023-12-07T03:36:22;0.60;88.10
25532;DHT22;13429;48.816;9.118;2023-12-07T03:38:48;0.60;87.90
25532;DHT22;13429;48.816;9.118;2023-12-07T03:41:14;0.50;88.40
25532;DHT22;13429;48.816;9.118;2023-12-07T03:43:40;0.50;88.50
25532;DHT22;13429;48.816;9.118;2023-12-07T03:46:07;0.60;88.50
25532;DHT22;13429;48.816;9.118;2023-12-07T03:48:33;0.70;88.80
25532;DHT22;13429;48.816;9.118;2023-12-07T03:51:00;0.60;88.30
25532;DHT22;13429;48.816;9.118;2023-12-07T03:53:25;0.40;88.20
25532;DHT22;13429;48.816;9.118;2023-12-07T03:55:51;0.40;88.60
25532;DHT22;13429;48.816;9.118;2023-12-07T03:58:17;0.30;88.20
25532;DHT22;13429;48.816;9.118;2023-12-07T04:00:44;0.10;88.40
25532;DHT22;13429;48.816;9.118;2023-12-07T04:03:10;0.10;88.30
25532;DHT22;13429;48.816;9.118;2023-12-07T04:05:35;0.10;89.70
25532;DHT22;13429;48.816;9.118;2023-12-07T04:08:01;0.10;89.30
25532;DHT22;13429;48.816;9.118;2023-12-07T04:10:26;0.10;89.30
25532;DHT22;13429;48.816;9.118;2023-12-07T04:12:52;0.00;89.10
25532;DHT22;13429;48.816;9.118;2023-12-07T04:15:19;-3276.70;89.90
25532;DHT22;13429;48.816;9.118;2023-12-07T04:17:45;-3276.70;89.50
25532;DHT22;13429;48.816;9.118;2023-12-07T04:20:11;-3276.60;89.10
25532;DHT22;13429;48.816;9.118;2023-12-07T04:22:38;-3276.50;89.30
25532;DHT22;13429;48.816;9.118;2023-12-07T04:25:05;-3276.50;89.10
25532;DHT22;13429;48.816;9.118;2023-12-07T04:27:31;-3276.50;89.10
25532;DHT22;13429;48.816;9.118;2023-12-07T04:29:57;-3276.30;89.30
25532;DHT22;13429;48.816;9.118;2023-12-07T04:32:23;-3276.30;89.20
25532;DHT22;13429;48.816;9.118;2023-12-07T04:34:49;-3276.20;89.30
25532;DHT22;13429;48.816;9.118;2023-12-07T04:37:15;-3276.10;89.50
25532;DHT22;13429;48.816;9.118;2023-12-07T04:39:40;-3276.00;89.90
25532;DHT22;13429;48.816;9.118;2023-12-07T04:42:06;-3276.00;89.50
25532;DHT22;13429;48.816;9.118;2023-12-07T04:44:31;-3276.00;89.90
25532;DHT22;13429;48.816;9.118;2023-12-07T04:46:57;-3275.90;89.80
25532;DHT22;13429;48.816;9.118;2023-12-07T04:49:23;-3275.90;90.00
25532;DHT22;13429;48.816;9.118;2023-12-07T04:51:48;-3275.80;89.90
25532;DHT22;13429;48.816;9.118;2023-12-07T04:54:14;-3275.80;89.80
25532;DHT22;13429;48.816;9.118;2023-12-07T04:56:43;-3275.80;90.30
25532;DHT22;13429;48.816;9.118;2023-12-07T04:59:12;-3275.80;90.30
25532;DHT22;13429;48.816;9.118;2023-12-07T05:01:37;-3275.80;90.20
25532;DHT22;13429;48.816;9.118;2023-12-07T05:04:04;-3275.80;89.90
25532;DHT22;13429;48.816;9.118;2023-12-07T05:06:31;-3275.70;90.30
25532;DHT22;13429;48.816;9.118;2023-12-07T05:08:57;-3275.70;90.00
25532;DHT22;13429;48.816;9.118;2023-12-07T05:11:22;-3275.70;90.00
25532;DHT22;13429;48.816;9.118;2023-12-07T05:13:48;-3275.70;90.70
25532;DHT22;13429;48.816;9.118;2023-12-07T05:16:13;-3275.70;90.40
25532;DHT22;13429;48.816;9.118;2023-12-07T05:18:40;-3275.70;90.60
25532;DHT22;13429;48.816;9.118;2023-12-07T05:21:06;-3275.60;90.80
25532;DHT22;13429;48.816;9.118;2023-12-07T05:23:31;-3275.50;90.40
25532;DHT22;13429;48.816;9.118;2023-12-07T05:25:57;-3275.50;91.30
25532;DHT22;13429;48.816;9.118;2023-12-07T05:28:23;-3275.50;91.60
25532;DHT22;13429;48.816;9.118;2023-12-07T05:30:49;-3275.50;91.40
25532;DHT22;13429;48.816;9.118;2023-12-07T05:33:15;-3275.40;91.10
25532;DHT22;13429;48.816;9.118;2023-12-07T05:35:41;-3275.40;91.10
25532;DHT22;13429;48.816;9.118;2023-12-07T05:38:07;-3275.40;91.00
25532;DHT22;13429;48.816;9.118;2023-12-07T05:40:32;-3275.40;91.40
25532;DHT22;13429;48.816;9.118;2023-12-07T05:42:59;-3275.50;91.50
25532;DHT22;13429;48.816;9.118;2023-12-07T05:45:25;-3275.50;91.70
25532;DHT22;13429;48.816;9.118;2023-12-07T05:47:51;-3275.60;91.80
25532;DHT22;13429;48.816;9.118;2023-12-07T05:50:17;-3275.50;91.50
25532;DHT22;13429;48.816;9.118;2023-12-07T05:52:43;-3275.50;91.30
25532;DHT22;13429;48.816;9.118;2023-12-07T05:55:09;-3275.40;91.10
25532;DHT22;13429;48.816;9.118;2023-12-07T05:57:35;-3275.40;90.90
25532;DHT22;13429;48.816;9.118;2023-12-07T06:00:01;-3275.30;90.80
25532;DHT22;13429;48.816;9.118;2023-12-07T06:02:26;-3275.30;90.80
25532;DHT22;13429;48.816;9.118;2023-12-07T06:04:52;-3275.20;91.10
25532;DHT22;13429;48.816;9.118;2023-12-07T06:07:18;-3275.20;91.50
25532;DHT22;13429;48.816;9.118;2023-12-07T06:09:44;-3275.20;92.00
25532;DHT22;13429;48.816;9.118;2023-12-07T06:12:10;-3275.20;91.70
25532;DHT22;13429;48.816;9.118;2023-12-07T06:14:35;-3275.20;91.20
25532;DHT22;13429;48.816;9.118;2023-12-07T06:17:01;-3275.20;91.70
25532;DHT22;13429;48.816;9.118;2023-12-07T06:19:26;-3275.30;92.00
25532;DHT22;13429;48.816;9.118;2023-12-07T06:21:52;-3275.20;91.70
25532;DHT22;13429;48.816;9.118;2023-12-07T06:24:17;-3275.20;92.10
25532;DHT22;13429;48.816;9.118;2023-12-07T06:26:43;-3275.20;91.80
25532;DHT22;13429;48.816;9.118;2023-12-07T06:29:09;-3275.10;91.60
25532;DHT22;13429;48.816;9.118;2023-12-07T06:31:34;-3275.10;91.50
25532;DHT22;13429;48.816;9.118;2023-12-07T06:34:00;-3275.00;91.60
25532;DHT22;13429;48.816;9.118;2023-12-07T06:36:26;-3275.00;91.60
25532;DHT22;13429;48.816;9.118;2023-12-07T06:38:52;-3275.00;92.00
25532;DHT22;13429;48.816;9.118;2023-12-07T06:41:18;-3274.90;91.30
25532;DHT22;13429;48.816;9.118;2023-12-07T06:43:44;-3274.90;91.30
25532;DHT22;13429;48.816;9.118;2023-12-07T06:46:13;-3275.00;91.30
25532;DHT22;13429;48.816;9.118;2023-12-07T06:48:39;-3275.00;91.10
25532;DHT22;13429;48.816;9.118;2023-12-07T06:51:05;-3275.00;91.20
25532;DHT22;13429;48.816;9.118;2023-12-07T06:53:30;-3274.90;91.80
25532;DHT22;13429;48.816;9.118;2023-12-07T06:55:59;-3274.90;92.20
25532;DHT22;13429;48.816;9.118;2023-12-07T06:58:24;-3274.80;91.80
25532;DHT22;13429;48.816;9.118;2023-12-07T07:00:50;-3274.80;91.70
25532;DHT22;13429;48.816;9.118;2023-12-07T07:03:16;-3274.80;91.70
25532;DHT22;13429;48.816;9.118;2023-12-07T07:05:42;-3274.80;91.60
25532;DHT22;13429;48.816;9.118;2023-12-07T07:08:08;-3274.80;91.60
25532;DHT22;13429;48.816;9.118;2023-12-07T07:10:34;-3274.90;91.60
25532;DHT22;13429;48.816;9.118;2023-12-07T07:13:03;-3275.00;91.70
25532;DHT22;13429;48.816;9.118;2023-12-07T07:15:31;-3275.00;91.80
25532;DHT22;13429;48.816;9.118;2023-12-07T07:17:57;-3275.00;91.60
25532;DHT22;13429;48.816;9.118;2023-12-07T07:20:22;-3275.00;91.50
25532;DHT22;13429;48.816;9.118;2023-12-07T07:22:48;-3275.10;91.70
25532;DHT22;13429;48.816;9.118;2023-12-07T07:25:14;-3275.20;92.20
25532;DHT22;13429;48.816;9.118;2023-12-07T07:27:48;-3275.20;91.90
25532;DHT22;13429;48.816;9.118;2023-12-07T07:30:13;-3275.30;92.10
25532;DHT22;13429;48.816;9.118;2023-12-07T07:32:39;-3275.50;92.30
25532;DHT22;13429;48.816;9.118;2023-12-07T07:35:06;-3275.40;92.30
25532;DHT22;13429;48.816;9.118;2023-12-07T07:37:31;-3275.40;92.20
25532;DHT22;13429;48.816;9.118;2023-12-07T07:39:57;-3275.50;92.10
25532;DHT22;13429;48.816;9.118;2023-12-07T07:42:22;-3275.50;91.90
25532;DHT22;13429;48.816;9.118;2023-12-07T07:44:48;-3275.50;91.70
25532;DHT22;13429;48.816;9.118;2023-12-07T07:47:14;-3275.60;91.70
25532;DHT22;13429;48.816;9.118;2023-12-07T07:49:39;-3275.60;91.80
25532;DHT22;13429;48.816;9.118;2023-12-07T07:52:05;-3275.70;91.80
25532;DHT22;13429;48.816;9.118;2023-12-07T07:54:31;-3275.70;91.70
25532;DHT22;13429;48.816;9.118;2023-12-07T07:56:57;-3275.80;91.70
25532;DHT22;13429;48.816;9.118;2023-12-07T07:59:22;-3275.90;91.90
25532;DHT22;13429;48.816;9.118;2023-12-07T08:01:48;-3276.00;91.60
25532;DHT22;13429;48.816;9.118;2023-12-07T08:04:15;-3276.00;91.50
25532;DHT22;13429;48.816;9.118;2023-12-07T08:06:41;-3276.20;91.50
25532;DHT22;13429;48.816;9.118;2023-12-07T08:09:08;-3276.30;91.40
25532;DHT22;13429;48.816;9.118;2023-12-07T08:11:35;0.00;91.20
25532;DHT22;13429;48.816;9.118;2023-12-07T08:14:00;1.10;90.10
25532;DHT22;13429;48.816;9.118;2023-12-07T08:16:26;0.80;90.10
25532;DHT22;13429;48.816;9.118;2023-12-07T08:18:53;0.60;90.20
25532;DHT22;13429;48.816;9.118;2023-12-07T08:21:23;0.40;90.00
25532;DHT22;13429;48.816;9.118;2023-12-07T08:23:48;0.50;91.00
25532;DHT22;13429;48.816;9.118;2023-12-07T08:26:14;0.60;91.00
25532;DHT22;13429;48.816;9.118;2023-12-07T08:28:43;0.60;90.90
25532;DHT22;13429;48.816;9.118;2023-12-07T08:31:09;0.50;90.50
25532;DHT22;13429;48.816;9.118;2023-12-07T08:33:34;0.50;90.00
25532;DHT22;13429;48.816;9.118;2023-12-07T08:36:01;0.40;89.80
25532;DHT22;13429;48.816;9.118;2023-12-07T08:38:27;0.40;89.90
25532;DHT22;13429;48.816;9.118;2023-12-07T08:40:52;0.50;89.90
25532;DHT22;13429;48.816;9.118;2023-12-07T08:43:22;0.50;89.80
25532;DHT22;13429;48.816;9.118;2023-12-07T08:45:53;0.60;90.00
25532;DHT22;13429;48.816;9.118;2023-12-07T08:48:20;0.70;90.00
25532;DHT22;13429;48.816;9.118;2023-12-07T08:50:46;0.80;89.90
25532;DHT22;13429;48.816;9.118;2023-12-07T08:53:11;0.80;89.90
25532;DHT22;13429;48.816;9.118;2023-12-07T08:55:37;0.90;89.50
25532;DHT22;13429;48.816;9.118;2023-12-07T08:58:03;0.90;89.50
25532;DHT22;13429;48.816;9.118;2023-12-07T09:00:33;0.90;89.40
25532;DHT22;13429;48.816;9.118;2023-12-07T09:02:59;1.00;89.60
25532;DHT22;13429;48.816;9.118;2023-12-07T09:05:26;1.00;89.50
25532;DHT22;13429;48.816;9.118;2023-12-07T09:07:52;1.10;89.30
25532;DHT22;13429;48.816;9.118;2023-12-07T09:10:18;1.10;89.20
25532;DHT22;13429;48.816;9.118;2023-12-07T09:12:44;1.30;89.20
25532;DHT22;13429;48.816;9.118;2023-12-07T09:15:10;1.30;89.20
25532;DHT22;13429;48.816;9.118;2023-12-07T09:17:37;1.40;88.70
25532;DHT22;13429;48.816;9.118;2023-12-07T09:20:12;1.50;88.70
25532;DHT22;13429;48.816;9.118;2023-12-07T09:22:39;1.50;88.90
25532;DHT22;13429;48.816;9.118;2023-12-07T09:25:06;1.60;88.70
25532;DHT22;13429;48.816;9.118;2023-12-07T09:27:33;1.70;88.40
25532;DHT22;13429;48.816;9.118;2023-12-07T09:30:01;1.70;88.00
25532;DHT22;13429;48.816;9.118;2023-12-07T09:32:26;1.70;88.10
25532;DHT22;13429;48.816;9.118;2023-12-07T09:34:53;1.80;88.10
25532;DHT22;13429;48.816;9.118;2023-12-07T09:37:19;1.90;88.20
25532;DHT22;13429;48.816;9.118;2023-12-07T09:39:45;1.90;87.90
25532;DHT22;13429;48.816;9.118;2023-12-07T09:42:11;2.00;87.60
25532;DHT22;13429;48.816;9.118;2023-12-07T09:44:36;2.10;87.60
25532;DHT22;13429;48.816;9.118;2023-12-07T09:47:02;2.00;86.70
25532;DHT22;13429;48.816;9.118;2023-12-07T09:49:30;2.10;86.80
25532;DHT22;13429;48.816;9.118;2023-12-07T09:51:56;2.20;86.90
25532;DHT22;13429;48.816;9.118;2023-12-07T09:54:24;2.30;86.90
25532;DHT22;13429;48.816;9.118;2023-12-07T09:56:52;2.30;86.70
25532;DHT22;13429;48.816;9.118;2023-12-07T09:59:20;2.40;86.50
25532;DHT22;13429;48.816;9.118;2023-12-07T10:01:45;2.40;86.60
25532;DHT22;13429;48.816;9.118;2023-12-07T10:04:20;2.40;86.10
25532;DHT22;13429;48.816;9.118;2023-12-07T10:06:46;2.50;85.70
25532;DHT22;13429;48.816;9.118;2023-12-07T10:09:13;2.50;85.80
25532;DHT22;13429;48.816;9.118;2023-12-07T10:11:40;2.60;85.70
25532;DHT22;13429;48.816;9.118;2023-12-07T10:14:09;2.70;85.60
25532;DHT22;13429;48.816;9.118;2023-12-07T10:16:35;2.70;85.20
25532;DHT22;13429;48.816;9.118;2023-12-07T10:19:14;2.80;85.40
25532;DHT22;13429;48.816;9.118;2023-12-07T10:21:43;2.90;85.20
25532;DHT22;13429;48.816;9.118;2023-12-07T10:24:09;2.90;84.80
25532;DHT22;13429;48.816;9.118;2023-12-07T10:26:35;3.00;84.70
25532;DHT22;13429;48.816;9.118;2023-12-07T10:29:05;3.00;84.90
25532;DHT22;13429;48.816;9.118;2023-12-07T10:31:31;3.10;84.80
25532;DHT22;13429;48.816;9.118;2023-12-07T10:33:58;3.20;84.50
25532;DHT22;13429;48.816;9.118;2023-12-07T10:36:25;3.20;84.40
25532;DHT22;13429;48.816;9.118;2023-12-07T10:38:51;3.30;84.20
25532;DHT22;13429;48.816;9.118;2023-12-07T10:41:22;3.30;83.80
25532;DHT22;13429;48.816;9.118;2023-12-07T10:43:49;3.30;84.10
25532;DHT22;13429;48.816;9.118;2023-12-07T10:46:19;3.30;84.00
25532;DHT22;13429;48.816;9.118;2023-12-07T10:48:45;3.30;83.30
25532;DHT22;13429;48.816;9.118;2023-12-07T10:51:19;3.40;82.70
25532;DHT22;13429;48.816;9.118;2023-12-07T10:53:48;3.30;82.60
25532;DHT22;13429;48.816;9.118;2023-12-07T10:56:33;3.30;82.30
25532;DHT22;13429;48.816;9.118;2023-12-07T10:59:00;3.40;81.60
25532;DHT22;13429;48.816;9.118;2023-12-07T11:01:26;3.50;81.50
25532;DHT22;13429;48.816;9.118;2023-12-07T11:03:52;3.50;80.30
25532;DHT22;13429;48.816;9.118;2023-12-07T11:06:19;3.50;79.50
25532;DHT22;13429;48.816;9.118;2023-12-07T11:08:49;3.60;79.60
25532;DHT22;13429;48.816;9.118;2023-12-07T11:14:12;3.70;79.80
25532;DHT22;13429;48.816;9.118;2023-12-07T11:16:42;3.70;78.80
25532;DHT22;13429;48.816;9.118;2023-12-07T11:22:10;3.80;78.70
25532;DHT22;13429;48.816;9.118;2023-12-07T11:24:37;3.80;78.50
25532;DHT22;13429;48.816;9.118;2023-12-07T11:27:03;3.70;78.10
25532;DHT22;13429;48.816;9.118;2023-12-07T11:29:29;3.70;78.00
25532;DHT22;13429;48.816;9.118;2023-12-07T11:32:21;3.80;76.00
25532;DHT22;13429;48.816;9.118;2023-12-07T11:34:47;3.90;77.50
25532;DHT22;13429;48.816;9.118;2023-12-07T11:37:15;3.90;76.50
25532;DHT22;13429;48.816;9.118;2023-12-07T11:39:44;3.90;76.40
25532;DHT22;13429;48.816;9.118;2023-12-07T11:42:12;4.00;75.10
25532;DHT22;13429;48.816;9.118;2023-12-07T11:44:40;3.90;75.20
25532;DHT22;13429;48.816;9.118;2023-12-07T11:47:06;3.90;75.20
25532;DHT22;13429;48.816;9.118;2023-12-07T11:49:32;4.00;75.40
25532;DHT22;13429;48.816;9.118;2023-12-07T11:51:58;4.00;75.80
25532;DHT22;13429;48.816;9.118;2023-12-07T11:54:28;4.10;75.10
25532;DHT22;13429;48.816;9.118;2023-12-07T11:56:54;4.20;72.70
25532;DHT22;13429;48.816;9.118;2023-12-07T11:59:20;4.20;72.70
25532;DHT22;13429;48.816;9.118;2023-12-07T12:01:47;4.30;71.70
25532;DHT22;13429;48.816;9.118;2023-12-07T12:04:14;4.30;71.70
25532;DHT22;13429;48.816;9.118;2023-12-07T12:06:40;4.40;72.00
25532;DHT22;13429;48.816;9.118;2023-12-07T12:09:06;4.30;71.70
25532;DHT22;13429;48.816;9.118;2023-12-07T12:11:31;4.30;71.30
25532;DHT22;13429;48.816;9.118;2023-12-07T12:13:57;4.20;69.50
25532;DHT22;13429;48.816;9.118;2023-12-07T12:16:23;4.20;71.70
25532;DHT22;13429;48.816;9.118;2023-12-07T12:18:49;4.20;71.70
25532;DHT22;13429;48.816;9.118;2023-12-07T12:21:14;4.20;72.20
25532;DHT22;13429;48.816;9.118;2023-12-07T12:23:40;4.20;71.00
25532;DHT22;13429;48.816;9.118;2023-12-07T12:26:07;4.20;71.50
25532;DHT22;13429;48.816;9.118;2023-12-07T12:28:33;4.10;71.60
25532;DHT22;13429;48.816;9.118;2023-12-07T12:31:03;4.10;71.40
25532;DHT22;13429;48.816;9.118;2023-12-07T12:33:30;4.10;71.50
25532;DHT22;13429;48.816;9.118;2023-12-07T12:36:07;4.20;70.60
25532;DHT22;13429;48.816;9.118;2023-12-07T12:38:33;4.20;71.00
25532;DHT22;13429;48.816;9.118;2023-12-07T12:40:59;4.20;70.60
25532;DHT22;13429;48.816;9.118;2023-12-07T12:43:24;4.30;69.90
25532;DHT22;13429;48.816;9.118;2023-12-07T12:45:50;4.30;68.40
25532;DHT22;13429;48.816;9.118;2023-12-07T12:48:16;4.30;67.50
25532;DHT22;13429;48.816;9.118;2023-12-07T12:50:42;4.30;68.10
25532;DHT22;13429;48.816;9.118;2023-12-07T12:53:09;4.40;67.10
25532;DHT22;13429;48.816;9.118;2023-12-07T12:55:39;4.40;67.60
25532;DHT22;13429;48.816;9.118;2023-12-07T12:58:09;4.40;66.80
25532;DHT22;13429;48.816;9.118;2023-12-07T13:00:39;4.40;67.10
25532;DHT22;13429;48.816;9.118;2023-12-07T13:03:06;4.40;68.10
25532;DHT22;13429;48.816;9.118;2023-12-07T13:05:32;4.50;67.30
25532;DHT22;13429;48.816;9.118;2023-12-07T13:08:00;4.50;67.10
25532;DHT22;13429;48.816;9.118;2023-12-07T13:10:26;4.50;66.70
25532;DHT22;13429;48.816;9.118;2023-12-07T13:12:52;4.60;66.60
25532;DHT22;13429;48.816;9.118;2023-12-07T13:15:17;4.50;67.40
25532;DHT22;13429;48.816;9.118;2023-12-07T13:17:44;4.40;67.10
25532;DHT22;13429;48.816;9.118;2023-12-07T13:20:10;4.40;66.50
25532;DHT22;13429;48.816;9.118;2023-12-07T13:22:43;4.30;66.40
25532;DHT22;13429;48.816;9.118;2023-12-07T13:25:12;4.30;66.80
25532;DHT22;13429;48.816;9.118;2023-12-07T13:27:41;4.30;67.00
25532;DHT22;13429;48.816;9.118;2023-12-07T13:30:08;4.30;66.40
25532;DHT22;13429;48.816;9.118;2023-12-07T13:32:35;4.20;66.90
25532;DHT22;13429;48.816;9.118;2023-12-07T13:35:03;4.20;66.50
25532;DHT22;13429;48.816;9.118;2023-12-07T13:37:28;4.20;66.80
25532;DHT22;13429;48.816;9.118;2023-12-07T13:39:54;4.20;66.70
25532;DHT22;13429;48.816;9.118;2023-12-07T13:42:27;4.20;67.00
25532;DHT22;13429;48.816;9.118;2023-12-07T13:44:59;4.20;66.90
25532;DHT22;13429;48.816;9.118;2023-12-07T13:47:26;4.20;66.50
25532;DHT22;13429;48.816;9.118;2023-12-07T13:49:57;4.20;66.10
25532;DHT22;13429;48.816;9.118;2023-12-07T13:52:23;4.20;66.60
25532;DHT22;13429;48.816;9.118;2023-12-07T13:54:49;4.30;67.10
25532;DHT22;13429;48.816;9.118;2023-12-07T13:57:15;4.30;66.90
25532;DHT22;13429;48.816;9.118;2023-12-07T13:59:40;4.30;66.60
25532;DHT22;13429;48.816;9.118;2023-12-07T14:02:07;4.30;67.10
25532;DHT22;13429;48.816;9.118;2023-12-07T14:04:35;4.30;67.00
25532;DHT22;13429;48.816;9.118;2023-12-07T14:07:12;4.30;66.50
25532;DHT22;13429;48.816;9.118;2023-12-07T14:09:41;4.30;66.60
25532;DHT22;13429;48.816;9.118;2023-12-07T14:12:07;4.40;66.20
25532;DHT22;13429;48.816;9.118;2023-12-07T14:14:34;4.30;66.10
25532;DHT22;13429;48.816;9.118;2023-12-07T14:17:00;4.30;66.20
25532;DHT22;13429;48.816;9.118;2023-12-07T14:19:26;4.30;66.30
25532;DHT22;13429;48.816;9.118;2023-12-07T14:21:53;4.20;66.30
25532;DHT22;13429;48.816;9.118;2023-12-07T14:24:19;4.10;66.40
25532;DHT22;13429;48.816;9.118;2023-12-07T14:26:44;4.00;66.50
25532;DHT22;13429;48.816;9.118;2023-12-07T14:29:10;4.00;66.20
25532;DHT22;13429;48.816;9.118;2023-12-07T14:31:41;3.90;66.30
25532;DHT22;13429;48.816;9.118;2023-12-07T14:34:06;3.80;67.20
25532;DHT22;13429;48.816;9.118;2023-12-07T14:36:32;3.70;66.90
25532;DHT22;13429;48.816;9.118;2023-12-07T14:38:58;3.50;67.20
25532;DHT22;13429;48.816;9.118;2023-12-07T14:41:23;3.50;67.40
25532;DHT22;13429;48.816;9.118;2023-12-07T14:43:49;3.40;67.10
25532;DHT22;13429;48.816;9.118;2023-12-07T14:46:15;3.30;67.30
25532;DHT22;13429;48.816;9.118;2023-12-07T14:48:40;3.20;67.60
25532;DHT22;13429;48.816;9.118;2023-12-07T14:51:06;3.10;67.20
25532;DHT22;13429;48.816;9.118;2023-12-07T14:53:32;3.10;66.70
25532;DHT22;13429;48.816;9.118;2023-12-07T14:55:59;3.10;66.00
25532;DHT22;13429;48.816;9.118;2023-12-07T14:58:24;3.00;65.90
25532;DHT22;13429;48.816;9.118;2023-12-07T15:00:51;2.90;65.90
25532;DHT22;13429;48.816;9.118;2023-12-07T15:03:17;2.80;65.90
25532;DHT22;13429;48.816;9.118;2023-12-07T15:05:44;2.80;65.40
25532;DHT22;13429;48.816;9.118;2023-12-07T15:08:10;2.70;65.60
25532;DHT22;13429;48.816;9.118;2023-12-07T15:10:37;2.70;65.70
25532;DHT22;13429;48.816;9.118;2023-12-07T15:13:03;2.60;65.60
25532;DHT22;13429;48.816;9.118;2023-12-07T15:15:29;2.60;65.50
25532;DHT22;13429;48.816;9.118;2023-12-07T15:17:56;2.50;66.10
25532;DHT22;13429;48.816;9.118;2023-12-07T15:20:21;2.40;66.10
25532;DHT22;13429;48.816;9.118;2023-12-07T15:22:47;2.40;66.20
25532;DHT22;13429;48.816;9.118;2023-12-07T15:25:13;2.30;66.50
25532;DHT22;13429;48.816;9.118;2023-12-07T15:27:38;2.30;66.80
25532;DHT22;13429;48.816;9.118;2023-12-07T15:30:05;2.20;66.90
25532;DHT22;13429;48.816;9.118;2023-12-07T15:32:33;2.20;66.70
25532;DHT22;13429;48.816;9.118;2023-12-07T15:34:58;2.10;66.80